createdAt,value
2023-03-17T00:01:22.398Z,2.70
2023-03-17T00:03:51.573Z,2.70
2023-03-17T00:06:25.120Z,2.60
2023-03-17T00:08:53.073Z,2.60
2023-03-17T00:11:21.500Z,2.60
2023-03-17T00:13:51.176Z,2.60
2023-03-17T00:16:22.066Z,2.60
2023-03-17T00:18:51.423Z,2.60
2023-03-17T00:21:23.813Z,2.60
2023-03-17T00:23:54.058Z,2.60
2023-03-17T00:26:22.017Z,2.60
2023-03-17T00:28:51.843Z,2.60
2023-03-17T00:31:23.546Z,2.70
2023-03-17T00:33:54.018Z,2.60
2023-03-17T00:36:23.939Z,2.60
2023-03-17T00:38:52.672Z,2.60
2023-03-17T00:41:20.879Z,2.60
2023-03-17T00:43:48.826Z,2.60
2023-03-17T00:46:22.022Z,2.50
2023-03-17T00:48:50.148Z,2.50
2023-03-17T00:51:18.074Z,2.60
2023-03-17T00:53:46.150Z,2.60
2023-03-17T00:56:15.955Z,2.60
2023-03-17T00:58:44.930Z,2.50
2023-03-17T01:01:13.418Z,2.50
2023-03-17T01:03:42.748Z,2.50
2023-03-17T01:06:13.802Z,2.50
2023-03-17T01:08:42.702Z,2.50
2023-03-17T01:11:18.659Z,2.50
2023-03-17T01:13:47.626Z,2.40
2023-03-17T01:16:16.005Z,2.50
2023-03-17T01:18:45.601Z,2.50
2023-03-17T01:21:14.010Z,2.50
2023-03-17T01:23:42.213Z,2.60
2023-03-17T01:26:10.323Z,2.60
2023-03-17T01:28:38.321Z,2.60
2023-03-17T01:31:06.450Z,2.60
2023-03-17T01:33:35.149Z,2.70
2023-03-17T01:36:04.592Z,2.70
2023-03-17T01:38:32.594Z,2.70
2023-03-17T01:41:02.314Z,2.70
2023-03-17T01:43:31.368Z,2.70
2023-03-17T01:46:27.581Z,2.70
2023-03-17T01:49:11.259Z,2.70
2023-03-17T01:51:47.610Z,2.60
2023-03-17T01:54:19.643Z,2.70
2023-03-17T01:56:52.517Z,2.60
2023-03-17T01:59:25.916Z,2.60
2023-03-17T02:01:59.026Z,2.60
2023-03-17T02:04:27.750Z,2.60
2023-03-17T02:06:58.892Z,2.50
2023-03-17T02:09:28.665Z,2.50
2023-03-17T02:11:58.066Z,2.50
2023-03-17T02:14:26.054Z,2.40
2023-03-17T02:16:54.625Z,2.40
2023-03-17T02:19:22.704Z,2.40
2023-03-17T02:21:53.809Z,2.40
2023-03-17T02:24:27.515Z,2.30
2023-03-17T02:26:58.359Z,2.30
2023-03-17T02:29:27.637Z,2.30
2023-03-17T02:31:55.670Z,2.30
2023-03-17T02:34:23.631Z,2.20
2023-03-17T02:36:53.112Z,2.20
2023-03-17T02:39:21.511Z,2.20
2023-03-17T02:41:49.560Z,2.20
2023-03-17T02:44:17.862Z,2.10
2023-03-17T02:46:46.320Z,2.10
2023-03-17T02:49:15.351Z,2.10
2023-03-17T02:51:43.324Z,2.10
2023-03-17T02:54:12.796Z,2.00
2023-03-17T02:56:40.915Z,2.00
2023-03-17T02:59:09.658Z,2.00
2023-03-17T03:01:38.900Z,2.00
2023-03-17T03:04:07.490Z,1.90
2023-03-17T03:06:36.107Z,1.90
2023-03-17T03:09:05.663Z,1.90
2023-03-17T03:11:34.994Z,1.90
2023-03-17T03:14:03.484Z,1.80
2023-03-17T03:16:31.438Z,1.80
2023-03-17T03:18:59.377Z,1.80
2023-03-17T03:21:27.660Z,1.80
2023-03-17T03:23:55.600Z,1.80
2023-03-17T03:26:23.800Z,1.70
2023-03-17T03:28:53.880Z,1.70
2023-03-17T03:31:22.997Z,1.70
2023-03-17T03:33:51.562Z,1.70
2023-03-17T03:36:20.410Z,1.70
2023-03-17T03:38:48.348Z,1.70
2023-03-17T03:41:16.453Z,1.70
2023-03-17T03:43:44.403Z,1.70
2023-03-17T03:46:13.732Z,1.70
2023-03-17T03:48:41.683Z,1.70
2023-03-17T03:51:09.621Z,1.60
2023-03-17T03:53:37.635Z,1.60
2023-03-17T03:56:06.387Z,1.60
2023-03-17T03:58:34.335Z,1.60
2023-03-17T04:01:06.157Z,1.60
2023-03-17T04:03:35.665Z,1.60
2023-03-17T04:06:04.462Z,1.60
2023-03-17T04:08:32.780Z,1.60
2023-03-17T04:11:00.771Z,1.60
2023-03-17T04:13:28.750Z,1.60
2023-03-17T04:15:56.790Z,1.60
2023-03-17T04:18:25.569Z,1.60
2023-03-17T04:20:54.903Z,1.60
2023-03-17T04:23:22.848Z,1.60
2023-03-17T04:25:51.948Z,1.60
2023-03-17T04:28:20.519Z,1.60
2023-03-17T04:30:48.467Z,1.60
2023-03-17T04:33:16.779Z,1.60
2023-03-17T04:35:44.949Z,1.60
2023-03-17T04:38:14.507Z,1.50
2023-03-17T04:40:42.663Z,1.50
2023-03-17T04:43:10.870Z,1.50
2023-03-17T04:45:38.945Z,1.50
2023-03-17T04:48:07.246Z,1.50
2023-03-17T04:50:35.621Z,1.50
2023-03-17T04:53:03.923Z,1.50
2023-03-17T04:55:33.207Z,1.40
2023-03-17T04:58:01.172Z,1.40
2023-03-17T05:00:29.464Z,1.40
2023-03-17T05:02:57.601Z,1.50
2023-03-17T05:05:25.536Z,1.40
2023-03-17T05:07:53.509Z,1.40
2023-03-17T05:10:21.431Z,1.40
2023-03-17T05:12:51.002Z,1.40
2023-03-17T05:15:19.216Z,1.40
2023-03-17T05:17:47.159Z,1.40
2023-03-17T05:20:15.631Z,1.40
2023-03-17T05:22:43.637Z,1.30
2023-03-17T05:25:11.614Z,1.30
2023-03-17T05:27:39.617Z,1.30
2023-03-17T05:30:11.684Z,1.30
2023-03-17T05:32:40.345Z,1.30
2023-03-17T05:35:09.085Z,1.30
2023-03-17T05:37:37.052Z,1.30
2023-03-17T05:40:05.709Z,1.30
2023-03-17T05:42:33.685Z,1.30
2023-03-17T05:45:01.636Z,1.30
2023-03-17T05:47:32.112Z,1.30
2023-03-17T05:50:00.060Z,1.30
2023-03-17T05:52:28.207Z,1.30
2023-03-17T05:54:56.768Z,1.30
2023-03-17T05:57:24.988Z,1.30
2023-03-17T05:59:52.924Z,1.40
2023-03-17T06:02:21.036Z,1.40
2023-03-17T06:04:50.583Z,1.40
2023-03-17T06:07:18.593Z,1.50
2023-03-17T06:09:46.529Z,1.60
2023-03-17T06:12:14.593Z,1.60
2023-03-17T06:14:42.599Z,1.70
2023-03-17T06:17:12.504Z,1.80
2023-03-17T06:19:40.713Z,1.80
2023-03-17T06:22:10.282Z,2.00
2023-03-17T06:24:38.441Z,2.10
2023-03-17T06:27:06.581Z,2.10
2023-03-17T06:29:34.582Z,2.30
2023-03-17T06:32:18.854Z,2.40
2023-03-17T06:34:48.265Z,2.60
2023-03-17T06:37:17.621Z,2.80
2023-03-17T06:39:45.774Z,2.80
2023-03-17T06:42:14.043Z,2.80
2023-03-17T06:44:41.994Z,2.80
2023-03-17T06:47:10.117Z,2.80
2023-03-17T06:49:38.297Z,2.80
2023-03-17T06:52:08.414Z,2.90
2023-03-17T06:54:37.708Z,3.00
2023-03-17T06:57:05.725Z,3.40
2023-03-17T06:59:33.722Z,3.70
2023-03-17T07:02:01.728Z,3.90
2023-03-17T07:04:29.819Z,4.20
2023-03-17T07:06:57.814Z,4.50
2023-03-17T07:09:25.803Z,4.80
2023-03-17T07:11:55.077Z,5.10
2023-03-17T07:14:23.036Z,5.30
2023-03-17T07:16:51.088Z,5.60
2023-03-17T07:19:19.046Z,5.90
2023-03-17T07:21:47.206Z,6.00
2023-03-17T07:24:15.416Z,6.00
2023-03-17T07:26:43.434Z,6.00
2023-03-17T07:29:12.764Z,6.10
2023-03-17T07:31:41.457Z,6.20
2023-03-17T07:34:10.465Z,6.30
2023-03-17T07:36:38.562Z,6.40
2023-03-17T07:39:06.557Z,6.60
2023-03-17T07:41:34.647Z,6.70
2023-03-17T07:44:03.946Z,6.90
2023-03-17T07:46:33.400Z,7.20
2023-03-17T07:49:01.695Z,7.40
2023-03-17T07:51:29.694Z,7.50
2023-03-17T07:54:03.529Z,7.70
2023-03-17T07:56:32.012Z,7.90
2023-03-17T07:59:00.446Z,7.90
2023-03-17T08:01:29.004Z,7.90
2023-03-17T08:03:58.681Z,7.90
2023-03-17T08:06:26.704Z,7.80
2023-03-17T08:08:55.798Z,7.80
2023-03-17T08:11:24.374Z,7.80
2023-03-17T08:13:52.323Z,7.90
2023-03-17T08:16:20.264Z,7.80
2023-03-17T08:18:48.214Z,7.90
2023-03-17T08:21:17.723Z,7.90
2023-03-17T08:23:45.733Z,7.90
2023-03-17T08:26:14.283Z,8.00
2023-03-17T08:28:43.033Z,8.10
2023-03-17T08:31:12.872Z,8.20
2023-03-17T08:33:42.333Z,8.20
2023-03-17T08:36:11.725Z,8.20
2023-03-17T08:38:42.589Z,8.30
2023-03-17T08:41:13.242Z,8.30
2023-03-17T08:43:43.905Z,8.20
2023-03-17T08:46:16.940Z,8.30
2023-03-17T08:48:46.788Z,8.30
2023-03-17T08:51:18.210Z,8.50
2023-03-17T08:53:48.682Z,8.60
2023-03-17T08:56:16.907Z,8.70
2023-03-17T08:58:45.249Z,8.80
2023-03-17T09:01:13.857Z,8.90
2023-03-17T09:03:42.042Z,8.90
2023-03-17T09:06:12.388Z,8.80
2023-03-17T09:08:44.986Z,8.80
2023-03-17T09:11:16.538Z,8.80
2023-03-17T09:13:46.453Z,8.90
2023-03-17T09:16:14.874Z,8.90
2023-03-17T09:18:43.095Z,8.90
2023-03-17T09:21:12.297Z,8.90
2023-03-17T09:23:41.117Z,8.80
2023-03-17T09:26:10.265Z,8.80
2023-03-17T09:28:39.773Z,8.90
2023-03-17T09:31:11.410Z,9.00
2023-03-17T09:33:39.787Z,8.90
2023-03-17T09:36:08.531Z,9.00
2023-03-17T09:38:37.503Z,9.10
2023-03-17T09:41:21.148Z,9.20
2023-03-17T09:43:55.646Z,9.20
2023-03-17T09:46:35.971Z,9.30
2023-03-17T09:49:08.655Z,9.40
2023-03-17T09:51:36.939Z,9.50
2023-03-17T09:54:08.452Z,9.70
2023-03-17T09:56:41.210Z,9.70
2023-03-17T09:59:31.319Z,9.80
2023-03-17T10:01:59.723Z,9.80
2023-03-17T10:04:29.204Z,9.90
2023-03-17T10:07:03.718Z,10.00
2023-03-17T10:09:40.131Z,10.10
2023-03-17T10:12:13.507Z,10.20
2023-03-17T10:14:57.324Z,10.20
2023-03-17T10:17:29.546Z,10.30
2023-03-17T10:20:01.772Z,10.40
2023-03-17T10:22:35.954Z,10.40
2023-03-17T10:25:09.231Z,10.50
2023-03-17T10:27:39.212Z,10.50
2023-03-17T10:30:17.311Z,10.60
2023-03-17T10:32:46.614Z,10.70
2023-03-17T10:35:16.622Z,10.70
2023-03-17T10:37:45.607Z,10.80
2023-03-17T10:40:22.806Z,10.90
2023-03-17T10:42:54.451Z,11.00
2023-03-17T10:45:28.783Z,11.10
2023-03-17T10:47:58.285Z,11.30
2023-03-17T10:50:31.400Z,11.40
2023-03-17T10:53:01.904Z,11.40
2023-03-17T10:55:33.169Z,11.40
2023-03-17T10:58:05.936Z,11.50
2023-03-17T11:00:38.600Z,11.60
2023-03-17T11:03:16.120Z,11.70
2023-03-17T11:05:56.748Z,11.80
2023-03-17T11:08:25.100Z,11.70
2023-03-17T11:10:57.542Z,11.80
2023-03-17T11:13:31.166Z,11.90
2023-03-17T11:16:11.647Z,12.00
2023-03-17T11:18:40.780Z,12.00
2023-03-17T11:21:11.379Z,12.00
2023-03-17T11:23:52.232Z,12.10
2023-03-17T11:26:40.483Z,12.20
2023-03-17T11:29:34.936Z,12.30
2023-03-17T11:32:15.317Z,12.30
2023-03-17T11:34:56.769Z,12.40
2023-03-17T11:37:36.140Z,12.50
2023-03-17T11:40:12.111Z,12.60
2023-03-17T11:42:50.583Z,12.70
2023-03-17T11:45:27.299Z,12.80
2023-03-17T11:48:20.489Z,12.80
2023-03-17T11:50:56.925Z,12.80
2023-03-17T11:53:52.932Z,12.80
2023-03-17T11:56:25.101Z,12.80
2023-03-17T11:58:57.352Z,12.80
2023-03-17T12:01:30.098Z,12.90
2023-03-17T12:04:11.535Z,12.90
2023-03-17T12:06:44.591Z,12.90
2023-03-17T12:09:26.224Z,12.80
2023-03-17T12:11:56.807Z,12.90
2023-03-17T12:14:30.099Z,12.80
2023-03-17T12:17:06.148Z,12.80
2023-03-17T12:19:42.475Z,12.80
2023-03-17T12:22:18.914Z,12.90
2023-03-17T12:24:54.619Z,13.00
2023-03-17T12:27:26.067Z,13.00
2023-03-17T12:29:59.348Z,13.00
2023-03-17T12:32:35.862Z,12.90
2023-03-17T12:35:20.183Z,12.80
2023-03-17T12:37:49.923Z,12.80
2023-03-17T12:40:24.040Z,12.80
2023-03-17T12:42:59.703Z,12.80
2023-03-17T12:45:51.523Z,12.80
2023-03-17T12:48:46.378Z,12.80
2023-03-17T12:51:45.752Z,12.80
2023-03-17T12:54:20.115Z,12.90
2023-03-17T12:56:49.955Z,13.00
2023-03-17T12:59:21.954Z,13.00
2023-03-17T13:01:58.513Z,13.00
2023-03-17T13:04:32.358Z,13.10
2023-03-17T13:07:10.070Z,13.10
2023-03-17T13:09:47.194Z,13.10
2023-03-17T13:12:50.700Z,13.10
2023-03-17T13:15:24.625Z,13.10
2023-03-17T13:17:53.767Z,13.20
2023-03-17T13:20:22.084Z,13.10
2023-03-17T13:23:13.052Z,13.10
2023-03-17T13:25:53.374Z,13.20
2023-03-17T13:28:27.083Z,13.20
2023-03-17T13:31:10.109Z,13.20
2023-03-17T13:33:44.742Z,13.20
2023-03-17T13:36:28.251Z,13.20
2023-03-17T13:39:35.881Z,13.20
2023-03-17T13:42:18.746Z,13.20
2023-03-17T13:45:04.199Z,13.20
2023-03-17T13:47:35.779Z,13.10
2023-03-17T13:50:09.469Z,13.20
2023-03-17T13:52:43.849Z,13.20
2023-03-17T13:55:35.971Z,13.30
2023-03-17T13:58:26.170Z,13.30
2023-03-17T14:01:02.550Z,13.30
2023-03-17T14:03:37.391Z,13.30
2023-03-17T14:06:08.271Z,13.30
2023-03-17T14:08:37.961Z,13.30
2023-03-17T14:11:16.934Z,13.40
2023-03-17T14:13:50.550Z,13.30
2023-03-17T14:16:25.339Z,13.30
2023-03-17T14:18:57.135Z,13.40
2023-03-17T14:21:27.064Z,13.40
2023-03-17T14:23:56.199Z,13.40
2023-03-17T14:26:27.749Z,13.40
2023-03-17T14:28:56.311Z,13.40
2023-03-17T14:31:26.852Z,13.40
2023-03-17T14:33:56.940Z,13.40
2023-03-17T14:36:26.246Z,13.40
2023-03-17T14:38:55.913Z,13.30
2023-03-17T14:41:27.458Z,13.40
2023-03-17T14:43:59.621Z,13.40
2023-03-17T14:46:32.018Z,13.30
2023-03-17T14:49:01.964Z,13.30
2023-03-17T14:51:33.375Z,13.20
2023-03-17T14:54:03.612Z,13.20
2023-03-17T14:56:37.289Z,13.20
2023-03-17T14:59:08.090Z,13.20
2023-03-17T15:01:39.718Z,13.20
2023-03-17T15:04:12.904Z,13.20
2023-03-17T15:06:49.862Z,13.30
2023-03-17T15:09:19.956Z,13.30
2023-03-17T15:11:50.298Z,13.40
2023-03-17T15:14:22.837Z,13.30
2023-03-17T15:16:53.003Z,13.40
2023-03-17T15:19:26.363Z,13.30
2023-03-17T15:21:57.139Z,13.30
2023-03-17T15:24:29.704Z,13.30
2023-03-17T15:27:03.802Z,13.20
2023-03-17T15:29:31.853Z,13.20
2023-03-17T15:32:07.715Z,13.20
2023-03-17T15:34:35.657Z,13.20
2023-03-17T15:37:03.708Z,13.20
2023-03-17T15:39:31.668Z,13.20
2023-03-17T15:41:59.724Z,13.20
2023-03-17T15:44:29.003Z,13.10
2023-03-17T15:46:56.955Z,13.10
2023-03-17T15:49:26.972Z,13.10
2023-03-17T15:51:55.120Z,13.10
2023-03-17T15:54:23.206Z,13.10
2023-03-17T15:56:51.495Z,13.10
2023-03-17T15:59:19.423Z,13.10
2023-03-17T16:01:48.903Z,13.00
2023-03-17T16:04:17.975Z,13.00
2023-03-17T16:06:48.118Z,13.00
2023-03-17T16:09:17.843Z,13.00
2023-03-17T16:11:45.854Z,13.00
2023-03-17T16:14:13.788Z,12.90
2023-03-17T16:16:45.782Z,12.90
2023-03-17T16:19:20.435Z,12.90
2023-03-17T16:21:49.097Z,12.80
2023-03-17T16:24:20.400Z,12.80
2023-03-17T16:26:49.247Z,12.70
2023-03-17T16:29:17.763Z,12.60
2023-03-17T16:31:48.912Z,12.60
2023-03-17T16:34:19.940Z,12.60
2023-03-17T16:36:48.441Z,12.50
2023-03-17T16:39:18.612Z,12.50
2023-03-17T16:41:48.067Z,12.50
2023-03-17T16:44:18.052Z,12.50
2023-03-17T16:46:46.187Z,12.50
2023-03-17T16:49:16.433Z,12.40
2023-03-17T16:51:46.026Z,12.40
2023-03-17T16:54:14.007Z,12.30
2023-03-17T16:56:43.183Z,12.30
2023-03-17T16:59:15.375Z,12.30
2023-03-17T17:01:43.780Z,12.30
2023-03-17T17:04:12.043Z,12.20
2023-03-17T17:06:40.026Z,12.20
2023-03-17T17:09:09.351Z,12.20
2023-03-17T17:11:37.311Z,12.20
2023-03-17T17:14:05.246Z,12.10
2023-03-17T17:16:36.432Z,12.10
2023-03-17T17:19:05.299Z,12.00
2023-03-17T17:21:33.952Z,12.00
2023-03-17T17:24:01.951Z,11.90
2023-03-17T17:26:31.296Z,11.90
2023-03-17T17:28:59.248Z,11.90
2023-03-17T17:31:27.216Z,11.80
2023-03-17T17:33:55.240Z,11.80
2023-03-17T17:36:24.139Z,11.70
2023-03-17T17:38:52.362Z,11.70
2023-03-17T17:41:21.580Z,11.70
2023-03-17T17:43:51.715Z,11.60
2023-03-17T17:46:21.305Z,11.60
2023-03-17T17:48:49.368Z,11.60
2023-03-17T17:51:17.466Z,11.60
2023-03-17T17:53:45.766Z,11.60
2023-03-17T17:56:15.941Z,11.60
2023-03-17T17:58:44.848Z,11.60
2023-03-17T18:01:19.612Z,11.60
2023-03-17T18:03:47.738Z,11.60
2023-03-17T18:06:17.150Z,11.60
2023-03-17T18:08:45.224Z,11.50
2023-03-17T18:11:13.523Z,11.50
2023-03-17T18:13:41.507Z,11.50
2023-03-17T18:16:10.782Z,11.50
2023-03-17T18:18:42.463Z,11.40
2023-03-17T18:21:10.840Z,11.40
2023-03-17T18:23:39.253Z,11.30
2023-03-17T18:26:07.646Z,11.30
2023-03-17T18:28:36.042Z,11.20
2023-03-17T18:31:09.583Z,11.20
2023-03-17T18:33:39.801Z,11.20
2023-03-17T18:36:08.828Z,11.20
2023-03-17T18:38:37.260Z,11.20
2023-03-17T18:41:07.766Z,11.10
2023-03-17T18:43:35.748Z,11.10
2023-03-17T18:46:03.715Z,11.10
2023-03-17T18:48:32.017Z,11.10
2023-03-17T18:51:01.630Z,11.10
2023-03-17T18:53:30.772Z,11.00
2023-03-17T18:55:59.855Z,11.00
2023-03-17T18:58:28.834Z,10.90
2023-03-17T19:00:59.954Z,10.90
2023-03-17T19:03:28.514Z,10.90
2023-03-17T19:05:57.044Z,10.90
2023-03-17T19:08:26.673Z,10.90
2023-03-17T19:10:54.615Z,10.90
2023-03-17T19:13:22.592Z,10.80
2023-03-17T19:15:50.821Z,10.80
2023-03-17T19:18:18.779Z,10.80
2023-03-17T19:20:46.814Z,10.80
2023-03-17T19:23:15.481Z,10.80
2023-03-17T19:25:44.888Z,10.80
2023-03-17T19:28:13.492Z,10.80
2023-03-17T19:30:41.988Z,10.70
2023-03-17T19:33:10.302Z,10.60
2023-03-17T19:35:38.343Z,10.60
2023-03-17T19:38:08.275Z,10.60
2023-03-17T19:40:36.991Z,10.60
2023-03-17T19:43:06.757Z,10.60
2023-03-17T19:45:34.905Z,10.50
2023-03-17T19:48:02.901Z,10.50
2023-03-17T19:50:32.865Z,10.50
2023-03-17T19:53:01.163Z,10.50
2023-03-17T19:55:29.861Z,10.50
2023-03-17T19:57:57.929Z,10.50
2023-03-17T20:00:27.359Z,10.50
2023-03-17T20:02:55.410Z,10.50
2023-03-17T20:05:23.541Z,10.40
2023-03-17T20:07:51.551Z,10.40
2023-03-17T20:10:20.001Z,10.40
2023-03-17T20:12:48.024Z,10.30
2023-03-17T20:15:16.591Z,10.30
2023-03-17T20:17:46.399Z,10.30
2023-03-17T20:20:15.392Z,10.30
2023-03-17T20:22:43.951Z,10.30
2023-03-17T20:25:12.421Z,10.30
2023-03-17T20:27:41.633Z,10.30
2023-03-17T20:30:12.290Z,10.20
2023-03-17T20:32:40.892Z,10.20
2023-03-17T20:35:11.259Z,10.20
2023-03-17T20:37:40.437Z,10.10
2023-03-17T20:40:10.792Z,10.10
2023-03-17T20:42:38.789Z,10.10
2023-03-17T20:45:08.837Z,10.10
2023-03-17T20:47:37.830Z,10.10
2023-03-17T20:50:08.745Z,10.10
2023-03-17T20:52:40.079Z,10.10
2023-03-17T20:55:09.323Z,10.10
2023-03-17T20:57:37.987Z,10.10
2023-03-17T21:00:08.252Z,10.00
2023-03-17T21:02:36.557Z,10.00
2023-03-17T21:05:04.834Z,10.00
2023-03-17T21:07:32.806Z,10.00
2023-03-17T21:10:02.341Z,10.10
2023-03-17T21:12:31.383Z,10.10
2023-03-17T21:14:59.344Z,10.10
2023-03-17T21:17:27.369Z,10.10
2023-03-17T21:19:56.690Z,10.00
2023-03-17T21:22:24.692Z,10.10
2023-03-17T21:24:53.035Z,10.10
2023-03-17T21:27:22.362Z,10.10
2023-03-17T21:29:50.310Z,10.00
2023-03-17T21:32:18.283Z,10.10
2023-03-17T21:34:47.125Z,10.00
2023-03-17T21:37:16.031Z,10.00
2023-03-17T21:39:44.638Z,10.00
2023-03-17T21:42:12.606Z,9.90
2023-03-17T21:44:42.105Z,9.90
2023-03-17T21:47:10.307Z,9.90
2023-03-17T21:49:38.581Z,9.80
2023-03-17T21:52:07.246Z,9.80
2023-03-17T21:54:36.267Z,9.80
2023-03-17T21:57:04.300Z,9.80
2023-03-17T21:59:34.411Z,9.70
2023-03-17T22:02:03.813Z,9.80
2023-03-17T22:04:31.998Z,9.80
2023-03-17T22:07:00.568Z,9.80
2023-03-17T22:09:29.456Z,9.80
2023-03-17T22:11:57.826Z,9.80
2023-03-17T22:14:25.842Z,9.80
2023-03-17T22:16:53.835Z,9.80
2023-03-17T22:19:23.177Z,9.70
2023-03-17T22:21:51.733Z,9.70
2023-03-17T22:24:19.855Z,9.70
2023-03-17T22:26:47.852Z,9.70
2023-03-17T22:29:16.368Z,9.60
2023-03-17T22:31:44.687Z,9.60
2023-03-17T22:34:12.710Z,9.60
2023-03-17T22:36:42.154Z,9.60
2023-03-17T22:39:10.840Z,9.60
2023-03-17T22:41:39.485Z,9.60
2023-03-17T22:44:09.264Z,9.70
2023-03-17T22:46:37.436Z,9.70
2023-03-17T22:49:05.984Z,9.70
2023-03-17T22:51:33.957Z,9.70
2023-03-17T22:54:03.790Z,9.70
2023-03-17T22:56:31.742Z,9.70
2023-03-17T22:58:59.792Z,9.70
2023-03-17T23:01:27.994Z,9.70
2023-03-17T23:03:57.012Z,9.70
2023-03-17T23:06:25.694Z,9.80
2023-03-17T23:08:53.695Z,9.80
2023-03-17T23:11:25.451Z,9.70
2023-03-17T23:13:54.241Z,9.70
2023-03-17T23:16:22.583Z,9.70
2023-03-17T23:18:50.837Z,9.70
2023-03-17T23:21:23.419Z,9.70
2023-03-17T23:23:51.396Z,9.60
2023-03-17T23:26:19.398Z,9.60
2023-03-17T23:28:49.602Z,9.60
2023-03-17T23:31:19.303Z,9.60
2023-03-17T23:33:47.955Z,9.60
2023-03-17T23:36:16.278Z,9.60
2023-03-17T23:38:45.525Z,9.60
2023-03-17T23:41:14.554Z,9.60
2023-03-17T23:43:43.979Z,9.70
2023-03-17T23:46:14.724Z,9.70
2023-03-17T23:48:43.233Z,9.80
2023-03-17T23:51:12.392Z,9.80
2023-03-17T23:53:41.706Z,9.80
2023-03-17T23:56:11.249Z,9.80
2023-03-17T23:58:39.261Z,9.90
